createdAt,value
2023-04-01T00:02:05.605Z,98833.88
2023-04-01T00:04:33.446Z,98840.69
2023-04-01T00:07:02.602Z,98841.50
2023-04-01T00:09:31.593Z,98839.78
2023-04-01T00:11:59.323Z,98844.38
2023-04-01T00:14:27.052Z,98843.56
2023-04-01T00:16:54.683Z,98837.09
2023-04-01T00:19:22.398Z,98840.59
2023-04-01T00:21:50.123Z,98838.50
2023-04-01T00:24:18.807Z,98843.56
2023-04-01T00:26:48.880Z,98842.25
2023-04-01T00:29:16.742Z,98840.53
2023-04-01T00:31:44.457Z,98846.19
2023-04-01T00:34:12.128Z,98843.56
2023-04-01T00:36:40.444Z,98843.81
2023-04-01T00:39:08.118Z,98839.47
2023-04-01T00:41:36.435Z,98842.44
2023-04-01T00:44:22.810Z,98849.50
2023-04-01T00:46:50.921Z,98842.97
2023-04-01T00:49:21.786Z,98834.28
2023-04-01T00:51:52.194Z,98835.94
2023-04-01T00:54:22.609Z,98837.25
2023-04-01T00:56:56.711Z,98840.78
2023-04-01T00:59:28.383Z,98839.38
2023-04-01T01:01:56.117Z,98846.84
2023-04-01T01:04:26.323Z,98843.41
2023-04-01T01:07:01.526Z,98855.88
2023-04-01T01:09:43.573Z,98847.50
2023-04-01T01:12:15.894Z,98852.59
2023-04-01T01:15:08.223Z,98854.81
2023-04-01T01:17:47.121Z,98851.19
2023-04-01T01:20:48.230Z,98851.19
2023-04-01T01:23:46.634Z,98851.50
2023-04-01T01:26:33.819Z,98844.69
2023-04-01T01:29:13.252Z,98847.03
2023-04-01T01:31:49.313Z,98846.03
2023-04-01T01:34:24.886Z,98846.03
2023-04-01T01:36:59.999Z,98844.31
2023-04-01T01:39:32.374Z,98851.13
2023-04-01T01:42:05.098Z,98846.28
2023-04-01T01:44:35.879Z,98838.41
2023-04-01T01:47:04.038Z,98841.09
2023-04-01T01:49:34.275Z,98843.09
2023-04-01T01:52:04.571Z,98846.09
2023-04-01T01:54:32.587Z,98843.09
2023-04-01T01:57:06.529Z,98843.41
2023-04-01T01:59:36.647Z,98844.53
2023-04-01T02:02:08.797Z,98851.28
2023-04-01T02:04:37.953Z,98848.34
2023-04-01T02:07:12.009Z,98854.22
2023-04-01T02:09:40.177Z,98851.84
2023-04-01T02:12:10.463Z,98851.59
2023-04-01T02:14:44.322Z,98846.19
2023-04-01T02:17:15.408Z,98844.53
2023-04-01T02:19:49.119Z,98841.63
2023-04-01T02:22:22.213Z,98842.16
2023-04-01T02:24:51.803Z,98842.69
2023-04-01T02:27:19.952Z,98850.81
2023-04-01T02:29:47.795Z,98846.19
2023-04-01T02:32:16.748Z,98843.75
2023-04-01T02:34:45.219Z,98849.66
2023-04-01T02:37:13.541Z,98846.44
2023-04-01T02:39:43.619Z,98849.72
2023-04-01T02:42:11.678Z,98847.13
2023-04-01T02:44:39.288Z,98850.03
2023-04-01T02:47:07.057Z,98845.72
2023-04-01T02:49:34.796Z,98855.72
2023-04-01T02:52:02.438Z,98866.53
2023-04-01T02:54:30.274Z,98855.97
2023-04-01T02:56:59.358Z,98857.94
2023-04-01T02:59:26.993Z,98857.19
2023-04-01T03:01:54.710Z,98862.28
2023-04-01T03:04:22.551Z,98862.59
2023-04-01T03:06:50.657Z,98859.81
2023-04-01T03:09:18.314Z,98865.56
2023-04-01T03:11:45.953Z,98866.38
2023-04-01T03:14:14.897Z,98863.41
2023-04-01T03:16:42.627Z,98861.53
2023-04-01T03:19:10.338Z,98861.78
2023-04-01T03:21:37.969Z,98865.56
2023-04-01T03:24:07.074Z,98866.38
2023-04-01T03:26:34.853Z,98864.00
2023-04-01T03:29:02.520Z,98866.72
2023-04-01T03:31:32.669Z,98865.06
2023-04-01T03:34:00.687Z,98863.41
2023-04-01T03:36:28.306Z,98857.69
2023-04-01T03:38:56.067Z,98860.66
2023-04-01T03:41:23.657Z,98873.34
2023-04-01T03:43:51.308Z,98872.03
2023-04-01T03:46:21.017Z,98868.78
2023-04-01T03:48:50.012Z,98877.72
2023-04-01T03:51:17.656Z,98876.41
2023-04-01T03:53:45.757Z,98880.25
2023-04-01T03:56:13.708Z,98878.50
2023-04-01T03:58:41.418Z,98875.72
2023-04-01T04:01:16.937Z,98877.19
2023-04-01T04:03:45.151Z,98880.72
2023-04-01T04:06:15.962Z,98876.72
2023-04-01T04:08:43.577Z,98881.63
2023-04-01T04:11:11.221Z,98882.69
2023-04-01T04:13:38.873Z,98886.50
2023-04-01T04:16:07.175Z,98885.09
2023-04-01T04:18:35.013Z,98876.72
2023-04-01T04:21:02.670Z,98884.25
2023-04-01T04:23:32.858Z,98882.38
2023-04-01T04:26:02.988Z,98891.81
2023-04-01T04:28:30.997Z,98893.13
2023-04-01T04:30:59.219Z,98880.72
2023-04-01T04:33:27.724Z,98888.25
2023-04-01T04:35:57.912Z,98890.97
2023-04-01T04:38:26.101Z,98894.53
2023-04-01T04:40:55.224Z,98897.22
2023-04-01T04:43:23.167Z,98899.94
2023-04-01T04:45:50.827Z,98898.78
2023-04-01T04:48:21.166Z,98895.22
2023-04-01T04:50:50.467Z,98897.03
2023-04-01T04:53:19.842Z,98906.47
2023-04-01T04:55:48.228Z,98902.34
2023-04-01T04:58:17.724Z,98906.72
2023-04-01T05:00:46.203Z,98905.66
2023-04-01T05:03:15.808Z,98909.88
2023-04-01T05:05:51.041Z,98911.44
2023-04-01T05:08:19.014Z,98902.59
2023-04-01T05:10:47.745Z,98907.16
2023-04-01T05:13:16.747Z,98913.06
2023-04-01T05:15:44.468Z,98907.66
2023-04-01T05:18:12.174Z,98916.38
2023-04-01T05:20:39.941Z,98913.78
2023-04-01T05:23:07.721Z,98913.78
2023-04-01T05:25:35.666Z,98910.13
2023-04-01T05:28:03.475Z,98912.59
2023-04-01T05:30:32.472Z,98913.78
2023-04-01T05:33:00.391Z,98917.19
2023-04-01T05:35:28.367Z,98917.44
2023-04-01T05:37:56.044Z,98925.81
2023-04-01T05:40:24.056Z,98925.44
2023-04-01T05:42:51.808Z,98923.56
2023-04-01T05:45:19.579Z,98921.09
2023-04-01T05:47:48.624Z,98928.50
2023-04-01T05:50:16.692Z,98931.22
2023-04-01T05:52:45.510Z,98930.38
2023-04-01T05:55:13.565Z,98930.97
2023-04-01T05:57:41.290Z,98936.94
2023-04-01T06:00:10.274Z,98933.91
2023-04-01T06:02:39.559Z,98936.97
2023-04-01T06:05:18.868Z,98935.31
2023-04-01T06:07:46.938Z,98940.25
2023-04-01T06:10:16.949Z,98943.59
2023-04-01T06:12:55.828Z,98939.38
2023-04-01T06:15:35.873Z,98942.09
2023-04-01T06:18:41.344Z,98946.25
2023-04-01T06:21:26.903Z,98946.34
2023-04-01T06:24:03.803Z,98946.13
2023-04-01T06:26:41.610Z,98949.81
2023-04-01T06:29:29.715Z,98955.22
2023-04-01T06:32:21.628Z,98953.69
2023-04-01T06:35:19.187Z,98957.53
2023-04-01T06:38:13.193Z,98960.00
2023-04-01T06:41:06.915Z,98957.09
2023-04-01T06:43:47.964Z,98961.00
2023-04-01T06:46:24.577Z,98967.56
2023-04-01T06:49:19.427Z,98962.13
2023-04-01T06:51:56.466Z,98966.72
2023-04-01T06:54:33.165Z,98967.56
2023-04-01T06:57:06.626Z,98966.25
2023-04-01T06:59:37.407Z,98969.63
2023-04-01T07:02:18.018Z,98974.06
2023-04-01T07:04:50.747Z,98973.38
2023-04-01T07:07:25.983Z,98976.97
2023-04-01T07:10:00.267Z,98971.72
2023-04-01T07:12:38.688Z,98984.03
2023-04-01T07:15:18.340Z,98978.59
2023-04-01T07:17:50.034Z,98983.31
2023-04-01T07:20:24.876Z,98982.56
2023-04-01T07:22:58.267Z,98990.22
2023-04-01T07:25:31.367Z,98995.16
2023-04-01T07:28:04.434Z,98998.69
2023-04-01T07:30:42.366Z,98997.13
2023-04-01T07:33:16.330Z,99003.97
2023-04-01T07:35:50.412Z,99003.97
2023-04-01T07:38:28.641Z,99006.97
2023-04-01T07:41:05.947Z,99009.84
2023-04-01T07:43:46.653Z,99013.53
2023-04-01T07:46:31.786Z,99016.41
2023-04-01T07:49:08.228Z,99016.59
2023-04-01T07:51:44.943Z,99015.28
2023-04-01T07:54:20.528Z,99023.75
2023-04-01T07:56:57.597Z,99025.63
2023-04-01T07:59:32.262Z,99027.63
2023-04-01T08:02:12.440Z,99027.03
2023-04-01T08:04:57.317Z,99030.84
2023-04-01T08:07:27.756Z,99038.47
2023-04-01T08:10:00.598Z,99034.59
2023-04-01T08:12:42.616Z,99043.22
2023-04-01T08:15:22.456Z,99042.97
2023-04-01T08:17:59.599Z,99035.75
2023-04-01T08:20:32.959Z,99040.41
2023-04-01T08:23:05.055Z,99044.06
2023-04-01T08:25:35.932Z,99043.25
2023-04-01T08:28:13.117Z,99046.41
2023-04-01T08:30:45.597Z,99052.66
2023-04-01T08:33:20.261Z,99055.94
2023-04-01T08:35:55.949Z,99053.22
2023-04-01T08:38:31.006Z,99051.31
2023-04-01T08:41:09.690Z,99053.59
2023-04-01T08:44:01.528Z,99051.38
2023-04-01T08:46:55.240Z,99054.28
2023-04-01T08:49:43.121Z,99059.22
2023-04-01T08:52:27.691Z,99055.28
2023-04-01T08:55:27.308Z,99064.41
2023-04-01T08:58:13.285Z,99068.59
2023-04-01T09:00:48.712Z,99065.22
2023-04-01T09:03:51.037Z,99058.78
2023-04-01T09:06:30.774Z,99059.94
2023-04-01T09:09:21.416Z,99068.22
2023-04-01T09:12:09.496Z,99066.25
2023-04-01T09:14:57.815Z,99067.19
2023-04-01T09:17:39.159Z,99071.09
2023-04-01T09:20:26.088Z,99069.06
2023-04-01T09:23:12.750Z,99071.56
2023-04-01T09:25:55.642Z,99079.38
2023-04-01T09:28:30.369Z,99085.09
2023-04-01T09:31:23.719Z,99084.59
2023-04-01T09:34:16.971Z,99087.44
2023-04-01T09:36:47.769Z,99097.06
2023-04-01T09:39:36.710Z,99090.88
2023-04-01T09:42:29.175Z,99088.59
2023-04-01T09:45:00.811Z,99097.31
2023-04-01T09:47:51.927Z,99095.75
2023-04-01T09:50:34.014Z,99103.41
2023-04-01T09:53:14.056Z,99105.31
2023-04-01T09:56:12.901Z,99101.91
2023-04-01T09:59:21.691Z,99110.94
2023-04-01T10:02:10.772Z,99105.94
2023-04-01T10:05:27.129Z,99120.09
2023-04-01T10:08:29.767Z,99118.44
2023-04-01T10:11:24.628Z,99122.91
2023-04-01T10:14:24.993Z,99132.38
2023-04-01T10:17:27.658Z,99129.25
2023-04-01T10:20:40.889Z,99125.28
2023-04-01T10:23:45.806Z,99126.78
2023-04-01T10:26:31.008Z,99128.44
2023-04-01T10:29:53.616Z,99135.34
2023-04-01T10:32:54.703Z,99138.53
2023-04-01T10:35:58.723Z,99137.63
2023-04-01T10:38:55.701Z,99146.28
2023-04-01T10:41:50.161Z,99140.25
2023-04-01T10:44:47.591Z,99137.16
2023-04-01T10:47:59.071Z,99145.53
2023-04-01T10:50:41.784Z,99144.47
2023-04-01T10:53:42.960Z,99148.00
2023-04-01T10:56:39.350Z,99147.25
2023-04-01T10:59:37.966Z,99161.16
2023-04-01T11:02:27.792Z,99152.50
2023-04-01T11:05:37.966Z,99156.53
2023-04-01T11:08:53.336Z,99153.31
2023-04-01T11:12:06.227Z,99156.03
2023-04-01T11:15:00.815Z,99164.16
2023-04-01T11:17:53.897Z,99159.25
2023-04-01T11:20:44.964Z,99170.63
2023-04-01T11:23:31.340Z,99178.84
2023-04-01T11:26:08.085Z,99181.31
2023-04-01T11:29:11.064Z,99179.41
2023-04-01T11:32:01.154Z,99176.22
2023-04-01T11:34:50.971Z,99180.06
2023-04-01T11:37:32.638Z,99182.28
2023-04-01T11:40:12.796Z,99187.88
2023-04-01T11:42:49.851Z,99183.34
2023-04-01T11:45:26.672Z,99185.88
2023-04-01T11:48:10.555Z,99195.50
2023-04-01T11:50:54.998Z,99192.28
2023-04-01T11:53:33.371Z,99197.16
2023-04-01T11:56:23.294Z,99202.94
2023-04-01T11:59:28.688Z,99205.47
2023-04-01T12:02:05.187Z,99208.34
2023-04-01T12:04:49.277Z,99211.19
2023-04-01T12:07:27.164Z,99216.41
2023-04-01T12:10:04.662Z,99213.72
2023-04-01T12:12:54.085Z,99212.66
2023-04-01T12:15:38.009Z,99227.00
2023-04-01T12:18:16.801Z,99221.44
2023-04-01T12:20:51.865Z,99224.56
2023-04-01T12:23:48.317Z,99225.00
2023-04-01T12:26:37.557Z,99228.50
2023-04-01T12:29:20.782Z,99225.91
2023-04-01T12:31:59.833Z,99227.31
2023-04-01T12:34:59.068Z,99226.16
2023-04-01T12:37:38.192Z,99229.75
2023-04-01T12:40:27.110Z,99229.31
2023-04-01T12:43:07.624Z,99237.66
2023-04-01T12:45:38.063Z,99231.16
2023-04-01T12:48:25.208Z,99238.56
2023-04-01T12:51:13.927Z,99245.19
2023-04-01T12:54:04.452Z,99245.88
2023-04-01T12:56:47.820Z,99253.59
2023-04-01T12:59:46.864Z,99252.56
2023-04-01T13:02:23.101Z,99253.22
2023-04-01T13:05:26.961Z,99260.06
2023-04-01T13:08:20.054Z,99260.34
2023-04-01T13:11:10.573Z,99268.00
2023-04-01T13:14:07.278Z,99273.97
2023-04-01T13:16:39.810Z,99278.06
2023-04-01T13:19:11.068Z,99282.13
2023-04-01T13:21:52.419Z,99285.44
2023-04-01T13:24:33.146Z,99285.66
2023-04-01T13:27:08.404Z,99289.97
2023-04-01T13:29:41.876Z,99298.88
2023-04-01T13:32:33.232Z,99299.06
2023-04-01T13:35:25.933Z,99297.50
2023-04-01T13:38:07.049Z,99298.69
2023-04-01T13:41:02.842Z,99304.09
2023-04-01T13:43:37.879Z,99302.97
2023-04-01T13:46:38.317Z,99317.97
2023-04-01T13:49:38.434Z,99331.38
2023-04-01T13:52:29.306Z,99329.78
2023-04-01T13:55:16.880Z,99350.41
2023-04-01T13:57:56.156Z,99346.81
2023-04-01T14:00:44.222Z,99342.53
2023-04-01T14:03:29.292Z,99355.88
2023-04-01T14:06:21.591Z,99362.28
2023-04-01T14:09:06.535Z,99359.44
2023-04-01T14:11:41.347Z,99368.16
2023-04-01T14:14:20.624Z,99373.81
2023-04-01T14:17:11.576Z,99378.66
2023-04-01T14:20:08.320Z,99385.72
2023-04-01T14:22:45.367Z,99385.66
2023-04-01T14:25:37.251Z,99397.19
2023-04-01T14:28:19.933Z,99405.31
2023-04-01T14:31:01.447Z,99410.03
2023-04-01T14:33:45.407Z,99401.19
2023-04-01T14:39:53.937Z,99408.50
2023-04-01T14:42:54.736Z,99421.00
2023-04-01T14:45:38.497Z,99421.09
2023-04-01T14:48:17.353Z,99429.50
2023-04-01T14:50:51.188Z,99428.34
2023-04-01T14:53:29.665Z,99448.34
2023-04-01T14:55:59.460Z,99445.66
2023-04-01T14:58:45.276Z,99443.53
2023-04-01T15:01:33.332Z,99454.25
2023-04-01T15:04:21.192Z,99459.63
2023-04-01T15:07:21.842Z,99468.69
2023-04-01T15:10:00.471Z,99465.78
2023-04-01T15:12:35.039Z,99476.28
2023-04-01T15:15:22.093Z,99491.19
2023-04-01T15:18:07.513Z,99497.78
2023-04-01T15:20:58.486Z,99496.50
2023-04-01T15:23:44.034Z,99504.88
2023-04-01T15:26:30.836Z,99502.50
2023-04-01T15:29:13.248Z,99518.19
2023-04-01T15:31:48.011Z,99524.25
2023-04-01T15:34:27.668Z,99525.81
2023-04-01T15:37:02.745Z,99529.97
2023-04-01T15:39:45.935Z,99534.88
2023-04-01T15:42:33.697Z,99542.53
2023-04-01T15:45:17.610Z,99546.56
2023-04-01T15:48:00.437Z,99558.09
2023-04-01T15:50:50.073Z,99556.53
2023-04-01T15:53:38.840Z,99571.78
2023-04-01T15:56:24.724Z,99577.13
2023-04-01T15:59:02.724Z,99568.31
2023-04-01T16:01:44.273Z,99585.13
2023-04-01T16:04:30.375Z,99578.97
2023-04-01T16:07:11.382Z,99588.31
2023-04-01T16:09:52.163Z,99596.34
2023-04-01T16:12:34.122Z,99603.44
2023-04-01T16:15:16.156Z,99597.50
2023-04-01T16:18:00.381Z,99608.53
2023-04-01T16:20:44.573Z,99624.72
2023-04-01T16:23:19.586Z,99617.72
2023-04-01T16:25:54.914Z,99616.06
2023-04-01T16:28:30.847Z,99621.69
2023-04-01T16:31:01.958Z,99635.59
2023-04-01T16:33:39.855Z,99641.50
2023-04-01T16:36:15.968Z,99642.31
2023-04-01T16:38:52.194Z,99649.31
2023-04-01T16:41:22.732Z,99656.25
2023-04-01T16:43:56.489Z,99661.88
2023-04-01T16:46:32.895Z,99662.31
2023-04-01T16:49:04.993Z,99675.03
2023-04-01T16:51:43.867Z,99683.50
2023-04-01T16:54:17.988Z,99696.59
2023-04-01T16:56:50.644Z,99701.19
2023-04-01T16:59:26.648Z,99705.38
2023-04-01T17:01:57.842Z,99702.72
2023-04-01T17:04:35.761Z,99713.38
2023-04-01T17:07:13.596Z,99718.75
2023-04-01T17:09:56.616Z,99721.63
2023-04-01T17:12:30.188Z,99728.50
2023-04-01T17:15:07.863Z,99728.72
2023-04-01T17:17:46.108Z,99731.00
2023-04-01T17:20:31.504Z,99749.97
2023-04-01T17:23:03.492Z,99751.25
2023-04-01T17:25:40.532Z,99763.28
2023-04-01T17:28:22.314Z,99768.88
2023-04-01T17:30:59.602Z,99775.94
2023-04-01T17:33:37.052Z,99781.75
2023-04-01T17:36:12.141Z,99783.03
2023-04-01T17:38:56.096Z,99796.72
2023-04-01T17:41:33.568Z,99798.19
2023-04-01T17:44:14.574Z,99802.31
2023-04-01T17:47:03.631Z,99814.56
2023-04-01T17:49:37.602Z,99807.91
2023-04-01T17:52:14.334Z,99821.41
2023-04-01T17:54:48.869Z,99822.66
2023-04-01T17:57:35.236Z,99835.53
2023-04-01T18:00:15.368Z,99839.25
2023-04-01T18:02:54.224Z,99850.91
2023-04-01T18:05:32.629Z,99856.69
2023-04-01T18:08:17.289Z,99864.56
2023-04-01T18:10:59.653Z,99871.63
2023-04-01T18:14:00.135Z,99872.88
2023-04-01T18:16:43.650Z,99882.41
2023-04-01T18:19:21.358Z,99888.03
2023-04-01T18:21:53.136Z,99887.13
2023-04-01T18:24:28.501Z,99907.06
2023-04-01T18:27:04.916Z,99905.59
2023-04-01T18:29:50.647Z,99918.47
2023-04-01T18:32:37.695Z,99920.97
2023-04-01T18:35:21.423Z,99930.16
2023-04-01T18:37:56.513Z,99931.38
2023-04-01T18:40:30.534Z,99943.75
2023-04-01T18:43:11.248Z,99950.44
2023-04-01T18:45:45.437Z,99960.34
2023-04-01T18:48:22.420Z,99963.63
2023-04-01T18:50:55.086Z,99967.13
2023-04-01T18:53:31.077Z,99964.53
2023-04-01T18:56:02.748Z,99978.66
2023-04-01T18:58:35.942Z,99985.06
2023-04-01T19:01:18.280Z,99985.47
2023-04-01T19:03:57.702Z,99997.34
2023-04-01T19:06:33.649Z,99997.38
2023-04-01T19:09:17.926Z,100003.78
2023-04-01T19:12:01.878Z,100003.75
2023-04-01T19:14:49.952Z,100012.66
2023-04-01T19:17:30.977Z,100018.63
2023-04-01T19:20:10.404Z,100033.06
2023-04-01T19:22:53.539Z,100031.44
2023-04-01T19:25:35.009Z,100039.56
2023-04-01T19:28:18.331Z,100048.03
2023-04-01T19:30:56.024Z,100056.41
2023-04-01T19:33:51.352Z,100069.06
2023-04-01T19:36:28.501Z,100071.00
2023-04-01T19:39:08.749Z,100073.69
2023-04-01T19:41:48.453Z,100080.50
2023-04-01T19:44:33.034Z,100076.69
2023-04-01T19:47:10.402Z,100091.56
2023-04-01T19:49:54.496Z,100101.97
2023-04-01T19:52:30.544Z,100106.00
2023-04-01T19:55:04.428Z,100104.72
2023-04-01T19:57:40.402Z,100115.84
2023-04-01T20:00:18.012Z,100115.53
2023-04-01T20:03:17.376Z,100132.50
2023-04-01T20:05:55.662Z,100140.97
2023-04-01T20:08:33.903Z,100135.66
2023-04-01T20:11:16.094Z,100141.91
2023-04-01T20:13:55.350Z,100148.94
2023-04-01T20:16:23.716Z,100160.16
2023-04-01T20:18:57.208Z,100166.69
2023-04-01T20:21:34.105Z,100172.97
2023-04-01T20:24:16.648Z,100181.22
2023-04-01T20:26:51.026Z,100186.06
2023-04-01T20:29:39.074Z,100189.03
2023-04-01T20:32:17.844Z,100197.03
2023-04-01T20:35:10.331Z,100205.88
2023-04-01T20:37:43.954Z,100215.22
2023-04-01T20:40:28.262Z,100213.59
2023-04-01T20:43:16.814Z,100216.38
2023-04-01T20:45:53.385Z,100228.97
2023-04-01T20:48:55.908Z,100216.91
2023-04-01T20:51:27.296Z,100230.28
2023-04-01T20:54:07.477Z,100233.25
2023-04-01T20:56:46.076Z,100235.19
2023-04-01T20:59:35.305Z,100244.44
2023-04-01T21:02:21.952Z,100251.94
2023-04-01T21:05:14.212Z,100267.34
2023-04-01T21:07:44.282Z,100270.44
2023-04-01T21:10:28.225Z,100273.50
2023-04-01T21:13:03.544Z,100284.09
2023-04-01T21:15:57.648Z,100294.34
2023-04-01T21:18:38.389Z,100293.84
2023-04-01T21:21:23.317Z,100296.72
2023-04-01T21:24:27.251Z,100302.53
2023-04-01T21:27:07.748Z,100313.56
2023-04-01T21:29:49.723Z,100313.78
2023-04-01T21:32:36.462Z,100329.50
2023-04-01T21:35:10.032Z,100324.66
2023-04-01T21:38:09.917Z,100334.28
2023-04-01T21:41:03.610Z,100349.38
2023-04-01T21:43:53.545Z,100352.50
2023-04-01T21:46:56.845Z,100353.69
2023-04-01T21:49:42.080Z,100358.50
2023-04-01T21:52:45.059Z,100355.72
2023-04-01T21:55:44.390Z,100371.09
2023-04-01T21:58:38.116Z,100368.72
2023-04-01T22:01:23.921Z,100372.50
2023-04-01T22:04:36.602Z,100379.25
2023-04-01T22:07:14.168Z,100390.81
2023-04-01T22:09:50.405Z,100393.28
2023-04-01T22:12:27.546Z,100394.56
2023-04-01T22:15:05.158Z,100402.75
2023-04-01T22:17:38.512Z,100411.19
2023-04-01T22:20:20.451Z,100419.56
2023-04-01T22:23:00.596Z,100424.75
2023-04-01T22:25:37.532Z,100425.75
2023-04-01T22:28:08.678Z,100426.50
2023-04-01T22:30:42.501Z,100434.50
2023-04-01T22:33:16.503Z,100437.56
2023-04-01T22:35:51.868Z,100436.53
2023-04-01T22:38:33.477Z,100441.25
2023-04-01T22:41:14.229Z,100449.31
2023-04-01T22:43:44.778Z,100467.13
2023-04-01T22:46:28.631Z,100459.19
2023-04-01T22:49:02.776Z,100462.19
2023-04-01T22:51:45.690Z,100474.91
2023-04-01T22:54:21.679Z,100483.72
2023-04-01T22:56:53.705Z,100479.97
2023-04-01T22:59:28.291Z,100485.03
2023-04-01T23:02:01.046Z,100487.91
2023-04-01T23:04:34.710Z,100495.97
2023-04-01T23:07:17.642Z,100497.03
2023-04-01T23:09:49.163Z,100504.91
2023-04-01T23:12:21.631Z,100503.09
2023-04-01T23:14:54.021Z,100509.50
2023-04-01T23:17:39.622Z,100518.25
2023-04-01T23:20:32.251Z,100522.97
2023-04-01T23:23:13.648Z,100525.63
2023-04-01T23:25:53.972Z,100521.78
2023-04-01T23:28:42.122Z,100537.09
2023-04-01T23:31:28.854Z,100538.75
2023-04-01T23:33:57.300Z,100532.56
2023-04-01T23:36:33.772Z,100548.00
2023-04-01T23:39:08.380Z,100548.84
2023-04-01T23:41:37.459Z,100555.91
2023-04-01T23:44:08.318Z,100560.81
2023-04-01T23:46:37.193Z,100565.16
2023-04-01T23:49:08.601Z,100576.41
2023-04-01T23:51:40.109Z,100579.59
2023-04-01T23:54:15.644Z,100585.13
2023-04-01T23:56:50.683Z,100594.88
2023-04-01T23:59:21.356Z,100594.03
